createdAt,value
2023-09-24T00:00:33.324Z,1005.8222311760001
2023-09-24T00:01:32.147Z,1005.7206398120001
2023-09-24T00:02:32.108Z,1005.7206398120001
2023-09-24T00:03:32.274Z,1005.8222311760001
2023-09-24T00:04:32.098Z,1005.8222311760001
2023-09-24T00:05:32.125Z,1005.92382254
2023-09-24T00:06:32.103Z,1005.7206398120001
2023-09-24T00:07:32.113Z,1006.0254139039998
2023-09-24T00:08:32.174Z,1005.8222311760001
2023-09-24T00:09:32.080Z,1005.92382254
2023-09-24T00:10:32.111Z,1006.0254139039998
2023-09-24T00:11:32.265Z,1005.92382254
2023-09-24T00:12:32.118Z,1005.8222311760001
2023-09-24T00:13:32.217Z,1006.0254139039998
2023-09-24T00:14:32.234Z,1005.92382254
2023-09-24T00:15:32.101Z,1006.0254139039998
2023-09-24T00:16:32.140Z,1005.92382254
2023-09-24T00:17:32.295Z,1005.8222311760001
2023-09-24T00:18:32.196Z,1006.127005268
2023-09-24T00:19:32.089Z,1006.0254139039998
2023-09-24T00:20:32.094Z,1006.0254139039998
2023-09-24T00:21:32.086Z,1005.8222311760001
2023-09-24T00:22:32.144Z,1006.0254139039998
2023-09-24T00:23:32.144Z,1006.127005268
2023-09-24T00:24:32.116Z,1006.127005268
2023-09-24T00:25:32.101Z,1006.127005268
2023-09-24T00:26:32.117Z,1005.92382254
2023-09-24T00:27:32.110Z,1005.92382254
2023-09-24T00:28:32.076Z,1006.0254139039998
2023-09-24T00:29:32.133Z,1006.228596632
2023-09-24T00:30:32.090Z,1006.0254139039998
2023-09-24T00:31:32.141Z,1006.127005268
2023-09-24T00:32:32.166Z,1006.127005268
2023-09-24T00:33:32.276Z,1006.0254139039998
2023-09-24T00:34:32.172Z,1006.127005268
2023-09-24T00:35:32.111Z,1006.0254139039998
2023-09-24T00:36:32.079Z,1006.0254139039998
2023-09-24T00:37:32.061Z,1006.127005268
2023-09-24T00:38:32.113Z,1006.127005268
2023-09-24T00:39:32.098Z,1006.0254139039998
2023-09-24T00:40:32.213Z,1006.127005268
2023-09-24T00:41:32.205Z,1006.0254139039998
2023-09-24T00:42:32.232Z,1006.127005268
2023-09-24T00:43:32.267Z,1006.228596632
2023-09-24T00:44:32.295Z,1006.127005268
2023-09-24T00:45:32.228Z,1006.0254139039998
2023-09-24T00:46:32.262Z,1006.127005268
2023-09-24T00:47:32.352Z,1006.127005268
2023-09-24T00:48:32.460Z,1006.228596632
2023-09-24T00:49:32.269Z,1006.127005268
2023-09-24T00:50:32.319Z,1006.0254139039998
2023-09-24T00:51:32.256Z,1006.127005268
2023-09-24T00:52:32.224Z,1006.0254139039998
2023-09-24T00:53:32.258Z,1006.127005268
2023-09-24T00:54:32.200Z,1006.127005268
2023-09-24T00:55:32.277Z,1005.92382254
2023-09-24T00:56:32.265Z,1006.0254139039998
2023-09-24T00:57:32.233Z,1006.228596632
2023-09-24T00:58:32.368Z,1006.228596632
2023-09-24T00:59:32.210Z,1006.127005268
2023-09-24T01:00:32.233Z,1006.0254139039998
2023-09-24T01:01:32.264Z,1006.228596632
2023-09-24T01:02:32.318Z,1005.92382254
2023-09-24T01:03:32.302Z,1006.228596632
2023-09-24T01:04:32.320Z,1006.3301879959998
2023-09-24T01:05:32.322Z,1006.3301879959998
2023-09-24T01:06:32.209Z,1006.3301879959998
2023-09-24T01:07:32.264Z,1006.127005268
2023-09-24T01:08:32.290Z,1006.3301879959998
2023-09-24T01:09:32.100Z,1006.127005268
2023-09-24T01:10:32.081Z,1006.228596632
2023-09-24T01:11:32.192Z,1006.533370724
2023-09-24T01:12:32.092Z,1006.3301879959998
2023-09-24T01:13:32.096Z,1006.43177936
2023-09-24T01:14:32.179Z,1006.3301879959998
2023-09-24T01:15:32.133Z,1006.127005268
2023-09-24T01:16:32.109Z,1006.3301879959998
2023-09-24T01:17:32.195Z,1006.43177936
2023-09-24T01:18:32.121Z,1006.43177936
2023-09-24T01:19:32.098Z,1006.43177936
2023-09-24T01:20:32.147Z,1006.533370724
2023-09-24T01:21:32.156Z,1006.43177936
2023-09-24T01:22:32.110Z,1006.43177936
2023-09-24T01:23:32.171Z,1006.3301879959998
2023-09-24T01:24:32.170Z,1006.6349620879998
2023-09-24T01:25:32.151Z,1006.533370724
2023-09-24T01:26:32.150Z,1006.43177936
2023-09-24T01:27:32.090Z,1006.533370724
2023-09-24T01:28:32.072Z,1006.533370724
2023-09-24T01:29:32.101Z,1006.43177936
2023-09-24T01:30:32.092Z,1006.6349620879998
2023-09-24T01:31:32.128Z,1006.6349620879998
2023-09-24T01:32:32.181Z,1006.838144816
2023-09-24T01:33:32.203Z,1006.736553452
2023-09-24T01:34:32.111Z,1006.6349620879998
2023-09-24T01:35:32.126Z,1006.43177936
2023-09-24T01:36:32.091Z,1006.6349620879998
2023-09-24T01:37:32.096Z,1006.533370724
2023-09-24T01:38:32.272Z,1006.533370724
2023-09-24T01:39:32.094Z,1006.6349620879998
2023-09-24T01:40:32.096Z,1006.533370724
2023-09-24T01:41:32.261Z,1006.6349620879998
2023-09-24T01:42:32.143Z,1006.736553452
2023-09-24T01:43:32.082Z,1006.6349620879998
2023-09-24T01:44:32.137Z,1006.736553452
2023-09-24T01:45:32.070Z,1006.533370724
2023-09-24T01:46:32.196Z,1006.6349620879998
2023-09-24T01:47:32.164Z,1006.6349620879998
2023-09-24T01:48:32.150Z,1006.533370724
2023-09-24T01:49:32.071Z,1006.736553452
2023-09-24T01:50:32.147Z,1006.6349620879998
2023-09-24T01:51:32.163Z,1006.9397361800001
2023-09-24T01:52:32.120Z,1006.736553452
2023-09-24T01:53:32.113Z,1006.6349620879998
2023-09-24T01:54:32.090Z,1006.838144816
2023-09-24T01:55:32.092Z,1006.736553452
2023-09-24T01:56:32.099Z,1006.6349620879998
2023-09-24T01:57:32.150Z,1006.6349620879998
2023-09-24T01:58:32.073Z,1006.9397361800001
2023-09-24T01:59:32.088Z,1006.838144816
2023-09-24T02:00:32.137Z,1006.736553452
2023-09-24T02:01:32.072Z,1006.736553452
2023-09-24T02:02:32.203Z,1006.838144816
2023-09-24T02:03:32.205Z,1006.838144816
2023-09-24T02:04:32.099Z,1006.6349620879998
2023-09-24T02:05:32.115Z,1006.736553452
2023-09-24T02:06:32.101Z,1006.533370724
2023-09-24T02:07:32.090Z,1006.6349620879998
2023-09-24T02:08:32.580Z,1006.736553452
2023-09-24T02:09:32.085Z,1006.6349620879998
2023-09-24T02:10:32.124Z,1006.838144816
2023-09-24T02:11:32.118Z,1006.736553452
2023-09-24T02:12:32.177Z,1006.9397361800001
2023-09-24T02:13:32.072Z,1006.9397361800001
2023-09-24T02:14:32.123Z,1006.838144816
2023-09-24T02:15:32.093Z,1006.838144816
2023-09-24T02:16:32.172Z,1006.838144816
2023-09-24T02:17:32.198Z,1006.736553452
2023-09-24T02:18:32.142Z,1006.9397361800001
2023-09-24T02:19:32.078Z,1006.736553452
2023-09-24T02:20:32.143Z,1006.736553452
2023-09-24T02:21:32.088Z,1006.9397361800001
2023-09-24T02:22:32.071Z,1006.838144816
2023-09-24T02:23:32.177Z,1006.9397361800001
2023-09-24T02:24:32.088Z,1006.736553452
2023-09-24T02:25:32.073Z,1006.9397361800001
2023-09-24T02:26:32.105Z,1007.0074637559999
2023-09-24T02:27:32.089Z,1007.0074637559999
2023-09-24T02:28:32.081Z,1006.9397361800001
2023-09-24T02:29:32.169Z,1006.736553452
2023-09-24T02:30:32.368Z,1007.10905512
2023-09-24T02:31:32.208Z,1007.0074637559999
2023-09-24T02:32:32.176Z,1006.838144816
2023-09-24T02:33:32.236Z,1007.0074637559999
2023-09-24T02:34:32.076Z,1006.838144816
2023-09-24T02:35:32.110Z,1006.9397361800001
2023-09-24T02:36:32.072Z,1006.9397361800001
2023-09-24T02:37:32.085Z,1006.9397361800001
2023-09-24T02:38:32.128Z,1006.838144816
2023-09-24T02:39:32.163Z,1006.9397361800001
2023-09-24T02:40:32.069Z,1006.9397361800001
2023-09-24T02:41:32.118Z,1007.0074637559999
2023-09-24T02:42:32.084Z,1006.838144816
2023-09-24T02:43:32.121Z,1006.9397361800001
2023-09-24T02:44:32.147Z,1006.9397361800001
2023-09-24T02:45:32.141Z,1006.9397361800001
2023-09-24T02:46:32.093Z,1006.9397361800001
2023-09-24T02:47:32.126Z,1006.838144816
2023-09-24T02:48:32.152Z,1007.0074637559999
2023-09-24T02:49:32.050Z,1006.9397361800001
2023-09-24T02:50:32.133Z,1006.736553452
2023-09-24T02:51:32.072Z,1007.0074637559999
2023-09-24T02:52:32.068Z,1007.0074637559999
2023-09-24T02:53:32.082Z,1006.736553452
2023-09-24T02:54:32.090Z,1007.0074637559999
2023-09-24T02:55:32.113Z,1006.9397361800001
2023-09-24T02:56:32.116Z,1007.0074637559999
2023-09-24T02:57:32.086Z,1006.9397361800001
2023-09-24T02:58:32.075Z,1006.9397361800001
2023-09-24T02:59:32.101Z,1007.10905512
2023-09-24T03:00:32.109Z,1006.9397361800001
2023-09-24T03:01:32.120Z,1007.10905512
2023-09-24T03:02:32.170Z,1006.9397361800001
2023-09-24T03:03:32.264Z,1007.0074637559999
2023-09-24T03:04:32.272Z,1007.10905512
2023-09-24T03:05:32.105Z,1006.838144816
2023-09-24T03:06:32.080Z,1006.9397361800001
2023-09-24T03:07:32.067Z,1007.0074637559999
2023-09-24T03:08:32.053Z,1006.9397361800001
2023-09-24T03:09:32.055Z,1007.10905512
2023-09-24T03:10:32.257Z,1007.10905512
2023-09-24T03:11:32.205Z,1007.0074637559999
2023-09-24T03:12:32.204Z,1007.10905512
2023-09-24T03:13:32.062Z,1006.9397361800001
2023-09-24T03:14:32.241Z,1007.0074637559999
2023-09-24T03:15:32.261Z,1007.2106464839999
2023-09-24T03:16:32.111Z,1007.2106464839999
2023-09-24T03:17:32.360Z,1007.2106464839999
2023-09-24T03:18:32.263Z,1007.10905512
2023-09-24T03:19:32.183Z,1007.2106464839999
2023-09-24T03:20:32.142Z,1007.3122378479999
2023-09-24T03:21:32.078Z,1007.10905512
2023-09-24T03:22:32.429Z,1007.2106464839999
2023-09-24T03:23:32.237Z,1007.2106464839999
2023-09-24T03:24:32.071Z,1007.2106464839999
2023-09-24T03:25:32.220Z,1007.3122378479999
2023-09-24T03:26:32.291Z,1007.2106464839999
2023-09-24T03:27:32.064Z,1007.3122378479999
2023-09-24T03:28:32.096Z,1007.2106464839999
2023-09-24T03:29:32.114Z,1007.3122378479999
2023-09-24T03:30:32.430Z,1007.2106464839999
2023-09-24T03:31:32.126Z,1007.413829212
2023-09-24T03:32:32.792Z,1007.6170119399999
2023-09-24T03:33:32.333Z,1007.5154205759999
2023-09-24T03:34:32.255Z,1007.5154205759999
2023-09-24T03:35:32.079Z,1007.413829212
2023-09-24T03:36:32.233Z,1007.5154205759999
2023-09-24T03:37:32.061Z,1007.6170119399999
2023-09-24T03:38:32.290Z,1007.413829212
2023-09-24T03:39:32.268Z,1007.5154205759999
2023-09-24T03:40:32.127Z,1007.413829212
2023-09-24T03:41:32.292Z,1007.6170119399999
2023-09-24T03:42:32.718Z,1007.413829212
2023-09-24T03:43:32.133Z,1007.5154205759999
2023-09-24T03:44:32.202Z,1007.5154205759999
2023-09-24T03:45:32.107Z,1007.5154205759999
2023-09-24T03:46:32.247Z,1007.6170119399999
2023-09-24T03:47:32.240Z,1007.5154205759999
2023-09-24T03:48:32.348Z,1007.5154205759999
2023-09-24T03:49:32.263Z,1007.6170119399999
2023-09-24T03:50:32.163Z,1007.718603304
2023-09-24T03:51:32.197Z,1007.6170119399999
2023-09-24T03:52:32.108Z,1007.6170119399999
2023-09-24T03:53:32.088Z,1007.718603304
2023-09-24T03:54:32.117Z,1007.8201946679999
2023-09-24T03:55:32.078Z,1007.6170119399999
2023-09-24T03:56:32.122Z,1007.6170119399999
2023-09-24T03:57:32.067Z,1007.718603304
2023-09-24T03:58:32.070Z,1007.718603304
2023-09-24T03:59:32.060Z,1007.718603304
2023-09-24T04:00:32.091Z,1007.718603304
2023-09-24T04:01:32.119Z,1007.8201946679999
2023-09-24T04:02:32.178Z,1007.718603304
2023-09-24T04:03:32.273Z,1007.718603304
2023-09-24T04:04:32.128Z,1007.6170119399999
2023-09-24T04:05:32.134Z,1007.8201946679999
2023-09-24T04:06:32.089Z,1007.8201946679999
2023-09-24T04:07:32.069Z,1007.8201946679999
2023-09-24T04:08:32.094Z,1007.6170119399999
2023-09-24T04:09:32.049Z,1007.718603304
2023-09-24T04:10:32.084Z,1007.921786032
2023-09-24T04:11:32.173Z,1007.921786032
2023-09-24T04:12:32.106Z,1007.8201946679999
2023-09-24T04:13:32.050Z,1007.8201946679999
2023-09-24T04:14:32.094Z,1007.718603304
2023-09-24T04:15:32.130Z,1007.718603304
2023-09-24T04:16:32.136Z,1007.8201946679999
2023-09-24T04:17:32.131Z,1007.718603304
2023-09-24T04:18:32.170Z,1007.718603304
2023-09-24T04:19:32.087Z,1007.8201946679999
2023-09-24T04:20:32.073Z,1007.921786032
2023-09-24T04:21:32.074Z,1007.718603304
2023-09-24T04:22:32.391Z,1007.8201946679999
2023-09-24T04:23:32.109Z,1007.8201946679999
2023-09-24T04:24:32.058Z,1008.226560124
2023-09-24T04:25:32.114Z,1007.8201946679999
2023-09-24T04:26:32.127Z,1007.921786032
2023-09-24T04:27:32.073Z,1008.1249687599999
2023-09-24T04:28:32.086Z,1007.8201946679999
2023-09-24T04:29:32.096Z,1008.023377396
2023-09-24T04:30:32.092Z,1007.921786032
2023-09-24T04:31:32.084Z,1007.921786032
2023-09-24T04:32:32.226Z,1008.023377396
2023-09-24T04:33:32.131Z,1008.1249687599999
2023-09-24T04:34:32.127Z,1008.1249687599999
2023-09-24T04:35:32.112Z,1008.023377396
2023-09-24T04:36:32.062Z,1008.023377396
2023-09-24T04:37:32.061Z,1008.1249687599999
2023-09-24T04:38:32.112Z,1008.1249687599999
2023-09-24T04:39:32.070Z,1008.1249687599999
2023-09-24T04:40:32.063Z,1008.023377396
2023-09-24T04:41:32.075Z,1008.023377396
2023-09-24T04:42:32.070Z,1007.921786032
2023-09-24T04:43:32.071Z,1008.1249687599999
2023-09-24T04:44:32.083Z,1008.429742852
2023-09-24T04:45:32.111Z,1008.1249687599999
2023-09-24T04:46:32.080Z,1008.1249687599999
2023-09-24T04:47:32.211Z,1008.328151488
2023-09-24T04:48:32.222Z,1008.1249687599999
2023-09-24T04:49:32.116Z,1008.226560124
2023-09-24T04:50:32.098Z,1008.226560124
2023-09-24T04:51:32.096Z,1008.1249687599999
2023-09-24T04:52:33.004Z,1008.226560124
2023-09-24T04:53:32.095Z,1008.226560124
2023-09-24T04:54:32.080Z,1008.328151488
2023-09-24T04:55:32.062Z,1008.328151488
2023-09-24T04:56:32.109Z,1008.429742852
2023-09-24T04:57:32.066Z,1008.429742852
2023-09-24T04:58:32.101Z,1008.226560124
2023-09-24T04:59:32.134Z,1008.226560124
2023-09-24T05:00:32.032Z,1008.226560124
2023-09-24T05:01:32.129Z,1008.328151488
2023-09-24T05:02:32.166Z,1008.226560124
2023-09-24T05:03:32.205Z,1008.531334216
2023-09-24T05:04:32.354Z,1008.328151488
2023-09-24T05:05:32.384Z,1008.531334216
2023-09-24T05:06:32.069Z,1008.328151488
2023-09-24T05:07:32.320Z,1008.429742852
2023-09-24T05:08:32.079Z,1008.429742852
2023-09-24T05:09:32.090Z,1008.531334216
2023-09-24T05:10:32.048Z,1008.328151488
2023-09-24T05:11:32.132Z,1008.531334216
2023-09-24T05:12:32.377Z,1008.531334216
2023-09-24T05:13:32.065Z,1008.328151488
2023-09-24T05:14:32.058Z,1008.328151488
2023-09-24T05:15:32.081Z,1008.429742852
2023-09-24T05:16:32.143Z,1008.63292558
2023-09-24T05:17:32.184Z,1008.531334216
2023-09-24T05:18:32.164Z,1008.836108308
2023-09-24T05:19:32.059Z,1008.531334216
2023-09-24T05:20:32.099Z,1008.63292558
2023-09-24T05:21:32.068Z,1008.63292558
2023-09-24T05:22:32.916Z,1008.531334216
2023-09-24T05:23:32.087Z,1008.63292558
2023-09-24T05:24:32.050Z,1008.63292558
2023-09-24T05:25:32.048Z,1008.429742852
2023-09-24T05:26:32.108Z,1008.531334216
2023-09-24T05:27:32.110Z,1008.531334216
2023-09-24T05:28:32.062Z,1008.836108308
2023-09-24T05:29:32.083Z,1008.429742852
2023-09-24T05:30:32.167Z,1008.63292558
2023-09-24T05:31:32.151Z,1008.63292558
2023-09-24T05:32:32.181Z,1008.734516944
2023-09-24T05:33:32.174Z,1008.937699672
2023-09-24T05:34:32.075Z,1008.937699672
2023-09-24T05:35:32.101Z,1009.0392910360001
2023-09-24T05:36:32.046Z,1008.836108308
2023-09-24T05:37:32.111Z,1008.734516944
2023-09-24T05:38:32.130Z,1008.836108308
2023-09-24T05:39:32.123Z,1008.734516944
2023-09-24T05:40:32.031Z,1008.937699672
2023-09-24T05:41:32.068Z,1008.937699672
2023-09-24T05:42:32.999Z,1008.937699672
2023-09-24T05:43:32.118Z,1008.734516944
2023-09-24T05:44:32.102Z,1008.937699672
2023-09-24T05:45:32.064Z,1009.1070186119999
2023-09-24T05:46:32.129Z,1009.0392910360001
2023-09-24T05:47:32.252Z,1009.0392910360001
2023-09-24T05:48:32.102Z,1008.937699672
2023-09-24T05:49:32.067Z,1009.0392910360001
2023-09-24T05:50:32.097Z,1008.937699672
2023-09-24T05:51:32.073Z,1009.0392910360001
2023-09-24T05:52:32.056Z,1008.937699672
2023-09-24T05:53:32.093Z,1009.1070186119999
2023-09-24T05:54:32.073Z,1008.836108308
2023-09-24T05:55:32.036Z,1008.937699672
2023-09-24T05:56:32.101Z,1008.937699672
2023-09-24T05:57:32.121Z,1009.0392910360001
2023-09-24T05:58:32.096Z,1009.208609976
2023-09-24T05:59:32.116Z,1009.0392910360001
2023-09-24T06:00:32.146Z,1009.1070186119999
2023-09-24T06:01:32.113Z,1009.1070186119999
2023-09-24T06:02:32.150Z,1009.3102013399999
2023-09-24T06:03:32.195Z,1009.0392910360001
2023-09-24T06:04:32.223Z,1009.3102013399999
2023-09-24T06:05:32.160Z,1009.1070186119999
2023-09-24T06:06:32.077Z,1009.3102013399999
2023-09-24T06:07:32.081Z,1009.208609976
2023-09-24T06:08:32.138Z,1009.3102013399999
2023-09-24T06:09:32.078Z,1009.208609976
2023-09-24T06:10:32.104Z,1009.1070186119999
2023-09-24T06:11:32.098Z,1009.208609976
2023-09-24T06:12:32.077Z,1009.1070186119999
2023-09-24T06:13:32.070Z,1009.1070186119999
2023-09-24T06:14:32.086Z,1008.937699672
2023-09-24T06:15:32.052Z,1009.0392910360001
2023-09-24T06:16:32.096Z,1009.3102013399999
2023-09-24T06:17:32.138Z,1009.3102013399999
2023-09-24T06:18:32.169Z,1009.0392910360001
2023-09-24T06:19:32.078Z,1009.3102013399999
2023-09-24T06:20:32.116Z,1009.208609976
2023-09-24T06:21:32.105Z,1009.0392910360001
2023-09-24T06:22:33.185Z,1009.1070186119999
2023-09-24T06:23:32.159Z,1009.4117927039999
2023-09-24T06:24:32.061Z,1009.208609976
2023-09-24T06:25:32.051Z,1009.3102013399999
2023-09-24T06:26:32.302Z,1009.0392910360001
2023-09-24T06:27:32.079Z,1009.1070186119999
2023-09-24T06:28:32.052Z,1009.3102013399999
2023-09-24T06:29:32.107Z,1009.1070186119999
2023-09-24T06:30:32.060Z,1009.3102013399999
2023-09-24T06:31:32.105Z,1009.208609976
2023-09-24T06:32:32.522Z,1009.4117927039999
2023-09-24T06:33:32.304Z,1009.4117927039999
2023-09-24T06:34:32.069Z,1009.3102013399999
2023-09-24T06:35:32.102Z,1009.4117927039999
2023-09-24T06:36:32.047Z,1009.513384068
2023-09-24T06:37:32.107Z,1009.208609976
2023-09-24T06:38:32.204Z,1009.3102013399999
2023-09-24T06:39:32.065Z,1009.208609976
2023-09-24T06:40:32.059Z,1009.513384068
2023-09-24T06:41:32.141Z,1009.6149754319999
2023-09-24T06:42:32.078Z,1009.4117927039999
2023-09-24T06:43:32.085Z,1009.3102013399999
2023-09-24T06:44:32.091Z,1009.208609976
2023-09-24T06:45:32.084Z,1009.4117927039999
2023-09-24T06:46:32.089Z,1009.513384068
2023-09-24T06:47:32.093Z,1009.4117927039999
2023-09-24T06:48:32.144Z,1009.513384068
2023-09-24T06:49:32.052Z,1009.513384068
2023-09-24T06:50:32.101Z,1009.7165667959999
2023-09-24T06:51:32.052Z,1009.4117927039999
2023-09-24T06:52:32.635Z,1009.3102013399999
2023-09-24T06:53:32.060Z,1009.513384068
2023-09-24T06:54:32.080Z,1009.6149754319999
2023-09-24T06:55:32.053Z,1009.4117927039999
2023-09-24T06:56:32.125Z,1009.513384068
2023-09-24T06:57:32.073Z,1009.4117927039999
2023-09-24T06:58:32.070Z,1009.7165667959999
2023-09-24T06:59:32.122Z,1009.6149754319999
2023-09-24T07:00:32.066Z,1009.4117927039999
2023-09-24T07:01:32.107Z,1009.513384068
2023-09-24T07:02:33.202Z,1009.6149754319999
2023-09-24T07:03:32.191Z,1009.7165667959999
2023-09-24T07:04:32.125Z,1009.81815816
2023-09-24T07:05:32.073Z,1009.6149754319999
2023-09-24T07:06:32.117Z,1009.513384068
2023-09-24T07:07:32.067Z,1009.7165667959999
2023-09-24T07:08:32.096Z,1009.7165667959999
2023-09-24T07:09:32.083Z,1009.7165667959999
2023-09-24T07:10:32.052Z,1009.6149754319999
2023-09-24T07:11:32.170Z,1009.7165667959999
2023-09-24T07:12:32.831Z,1009.7165667959999
2023-09-24T07:13:32.068Z,1009.7165667959999
2023-09-24T07:14:32.125Z,1009.81815816
2023-09-24T07:15:32.047Z,1009.919749524
2023-09-24T07:16:32.085Z,1009.7165667959999
2023-09-24T07:17:32.175Z,1009.7165667959999
2023-09-24T07:18:32.111Z,1009.919749524
2023-09-24T07:19:32.055Z,1009.6149754319999
2023-09-24T07:20:32.047Z,1009.81815816
2023-09-24T07:21:36.145Z,1009.6149754319999
2023-09-24T07:22:32.505Z,1009.7165667959999
2023-09-24T07:23:32.106Z,1009.81815816
2023-09-24T07:24:32.054Z,1009.81815816
2023-09-24T07:25:32.053Z,1010.0213408879999
2023-09-24T07:26:32.238Z,1009.81815816
2023-09-24T07:27:32.124Z,1009.81815816
2023-09-24T07:28:32.060Z,1009.919749524
2023-09-24T07:29:32.130Z,1009.81815816
2023-09-24T07:30:32.044Z,1009.7165667959999
2023-09-24T07:31:32.672Z,1009.7165667959999
2023-09-24T07:32:32.209Z,1010.0213408879999
2023-09-24T07:33:32.148Z,1009.919749524
2023-09-24T07:34:32.057Z,1009.919749524
2023-09-24T07:35:32.108Z,1009.919749524
2023-09-24T07:36:38.521Z,1009.919749524
2023-09-24T07:37:32.076Z,1010.0213408879999
2023-09-24T07:38:32.100Z,1009.81815816
2023-09-24T07:39:32.072Z,1009.919749524
2023-09-24T07:40:32.073Z,1010.0213408879999
2023-09-24T07:41:32.123Z,1009.919749524
2023-09-24T07:42:32.587Z,1009.7165667959999
2023-09-24T07:43:32.078Z,1009.919749524
2023-09-24T07:44:32.094Z,1010.224523616
2023-09-24T07:45:32.110Z,1009.919749524
2023-09-24T07:46:32.054Z,1009.919749524
2023-09-24T07:47:32.143Z,1010.122932252
2023-09-24T07:48:32.140Z,1010.224523616
2023-09-24T07:49:32.054Z,1010.0213408879999
2023-09-24T07:50:32.066Z,1009.919749524
2023-09-24T07:51:32.046Z,1010.224523616
2023-09-24T07:52:32.041Z,1009.919749524
2023-09-24T07:53:32.066Z,1010.122932252
2023-09-24T07:54:32.043Z,1010.122932252
2023-09-24T07:55:32.073Z,1010.224523616
2023-09-24T07:56:32.226Z,1010.224523616
2023-09-24T07:57:32.100Z,1010.0213408879999
2023-09-24T07:58:32.077Z,1010.3261149799999
2023-09-24T07:59:32.073Z,1010.224523616
2023-09-24T08:00:32.083Z,1010.3261149799999
2023-09-24T08:01:32.163Z,1010.3261149799999
2023-09-24T08:02:32.170Z,1010.224523616
2023-09-24T08:03:32.164Z,1010.3261149799999
2023-09-24T08:04:32.033Z,1010.3261149799999
2023-09-24T08:05:32.146Z,1010.224523616
2023-09-24T08:06:32.051Z,1010.3261149799999
2023-09-24T08:07:32.042Z,1010.3261149799999
2023-09-24T08:08:47.928Z,1010.630889072
2023-09-24T08:09:32.159Z,1010.3261149799999
2023-09-24T08:10:32.062Z,1010.4277063440001
2023-09-24T08:11:32.103Z,1010.3261149799999
2023-09-24T08:12:32.994Z,1010.3261149799999
2023-09-24T08:13:32.102Z,1010.224523616
2023-09-24T08:14:32.061Z,1010.3261149799999
2023-09-24T08:15:34.283Z,1010.4277063440001
2023-09-24T08:16:32.173Z,1010.3261149799999
2023-09-24T08:17:32.117Z,1010.4277063440001
2023-09-24T08:18:32.153Z,1010.3261149799999
2023-09-24T08:19:32.146Z,1010.4277063440001
2023-09-24T08:20:32.164Z,1010.4277063440001
2023-09-24T08:21:32.043Z,1010.3261149799999
2023-09-24T08:22:32.142Z,1010.3261149799999
2023-09-24T08:23:32.067Z,1010.630889072
2023-09-24T08:24:32.056Z,1010.630889072
2023-09-24T08:25:32.064Z,1010.4277063440001
2023-09-24T08:26:32.067Z,1010.4277063440001
2023-09-24T08:27:32.033Z,1010.630889072
2023-09-24T08:28:32.050Z,1010.4277063440001
2023-09-24T08:29:32.054Z,1010.4277063440001
2023-09-24T08:30:32.063Z,1010.7324804360001
2023-09-24T08:31:32.119Z,1010.8340718000001
2023-09-24T08:32:32.156Z,1010.630889072
2023-09-24T08:33:32.117Z,1010.630889072
2023-09-24T08:34:32.057Z,1010.4277063440001
2023-09-24T08:35:32.066Z,1010.7324804360001
2023-09-24T08:36:32.045Z,1010.5292977080001
2023-09-24T08:37:32.074Z,1010.630889072
2023-09-24T08:38:32.047Z,1010.7324804360001
2023-09-24T08:39:32.070Z,1010.7324804360001
2023-09-24T08:40:32.038Z,1010.7324804360001
2023-09-24T08:41:32.063Z,1010.935663164
2023-09-24T08:42:32.352Z,1010.4277063440001
2023-09-24T08:43:32.052Z,1010.5292977080001
2023-09-24T08:44:32.020Z,1010.7324804360001
2023-09-24T08:45:32.034Z,1010.7324804360001
2023-09-24T08:46:32.107Z,1010.630889072
2023-09-24T08:47:32.103Z,1010.8340718000001
2023-09-24T08:48:32.143Z,1010.8340718000001
2023-09-24T08:49:32.065Z,1010.935663164
2023-09-24T08:50:32.050Z,1010.5292977080001
2023-09-24T08:51:32.131Z,1010.8340718000001
2023-09-24T08:52:32.051Z,1010.7324804360001
2023-09-24T08:53:32.049Z,1010.630889072
2023-09-24T08:54:32.063Z,1010.8340718000001
2023-09-24T08:55:32.045Z,1010.935663164
2023-09-24T08:56:32.053Z,1010.5292977080001
2023-09-24T08:57:32.066Z,1010.8340718000001
2023-09-24T08:58:32.057Z,1010.935663164
2023-09-24T08:59:32.041Z,1010.8340718000001
2023-09-24T09:00:32.040Z,1010.8340718000001
2023-09-24T09:01:32.128Z,1010.8340718000001
2023-09-24T09:02:32.122Z,1010.8340718000001
2023-09-24T09:03:32.153Z,1011.1388458920001
2023-09-24T09:04:32.048Z,1011.0372545280001
2023-09-24T09:05:32.100Z,1011.1388458920001
2023-09-24T09:06:32.065Z,1011.0372545280001
2023-09-24T09:07:32.058Z,1011.0372545280001
2023-09-24T09:08:32.057Z,1010.935663164
2023-09-24T09:09:32.031Z,1011.2404372559998
2023-09-24T09:10:32.062Z,1011.1388458920001
2023-09-24T09:11:32.079Z,1011.308164832
2023-09-24T09:12:32.038Z,1011.0372545280001
2023-09-24T09:13:32.077Z,1011.2404372559998
2023-09-24T09:14:32.059Z,1011.1388458920001
2023-09-24T09:15:32.058Z,1011.1388458920001
2023-09-24T09:16:32.071Z,1010.8340718000001
2023-09-24T09:17:32.047Z,1010.935663164
2023-09-24T09:18:32.105Z,1011.1388458920001
2023-09-24T09:19:32.107Z,1011.0372545280001
2023-09-24T09:20:32.071Z,1011.0372545280001
2023-09-24T09:21:32.046Z,1011.2404372559998
2023-09-24T09:22:33.072Z,1010.8340718000001
2023-09-24T09:23:32.146Z,1011.0372545280001
2023-09-24T09:24:32.062Z,1011.1388458920001
2023-09-24T09:25:32.040Z,1011.0372545280001
2023-09-24T09:26:32.057Z,1011.0372545280001
2023-09-24T09:27:32.076Z,1010.935663164
2023-09-24T09:28:32.055Z,1011.0372545280001
2023-09-24T09:29:32.042Z,1011.0372545280001